Terminal Aerodrome Forecast
Issued by NWS Green Bay, WI

Home | Current Version | Previous Version | Graphics & Text | Print | Product List | Glossary On
Versions: 1 2 3 4 5 6 7 8 9 10 11 12 13 14 15 16 17 18 19 20 21 22 23
000
FTUS43 KGRB 102330
TAFGRB
TAF
KGRB 102330Z 1100/1124 32005KT P6SM OVC040
     FM110400 27002KT P6SM SCT040 OVC090
     FM111100 16004KT 2SM -SHSN OVC023
     FM111400 21005KT 1 1/2SM -SHSN OVC012
     FM112200 32006KT 6SM -SHSN BKN016=

USA.gov is the U.S. government's official web portal to all federal, state and local government web resources and services.